Norden-Norddeich Airport

EDWS · 下萨克森, 德国

罗盘
风向 的 风向 260° Norden-Norddeich Airport 16/34
风: 7 kt, 3 beaufort

1 kt

7 kt
改变
0 1.000 2.000 3.000 4.000 5.000
SCT 3.100 ft
METAR EHGG 071525Z AUTO 26007KT 9999 SCT031 03/02 Q1012 REDZ TEMPO 7000 SHRA SCT018CB

METAR Norden-Norddeich Airport - EDWS/NOD

Norden-Norddeich Airport是,德国中的小机场。 该机场有一条跑道: 16/34. 该领域的国际民航组织标志是EDWS 它的国际航空运输协会代码是NOD.

这份报告是针对2022年12月7日 16:25, 当地时间在Groningen Airport Eelde进行的。

机场观察

风向为260°,速度为7 kt。

可见度为10 km 或者更多。

有疏云,零星散落的云朵在3.100 ft的高度。 没有观察到天花板。

温度为3 °C,阵风为-2 °C。 露点为2 °C,相对湿度为93%。 海平面上的气压为1012 hPa (QNH)。 最近是细雨。

发展趋势

  • 暂时的

    可变方向的风很小或没有。 可见性变为7 km。 重大天气:阵雨 雨。 疏云,零星散落的云朵 积雨云在1.800 ft的高度.

白天

今天,太阳从08:33升起,在16:12降落。 这适用于Norden-Norddeich Airport,世界夏令时可能有所不同。 当地时间与世界标准时间之间的时差为+1 小时。 当前,没有夏令时有效。

公司介绍

我们没有关于这个机场的公司信息。

体会

到Vliegles.nl去找飞行课程,跳伞和其他飞行体验。 浏览页面,了解Norden-Norddeich Airport附近所有可用的活动。 你也可以使用搜索功能来寻找你所在地附近的特定飞行课程、跳伞或其他飞行体验。

跑道

Id 标题 侧风 逆风 侧风 %
16/34 159°-339° 7 kt 1 kt 98 %

逆风成分最大的方向会被突出显示,并用于横风计算。 这并不一定意味着这个方向在使用。

乌云

3.100 ft SCT 疏云,零星散落的云朵
1.800 ft SCT 暂时的 疏云,零星散落的云朵 积雨云

温度 & 天气

最近的 细雨
温度 3 °C
露点 2 °C
相对湿度 93%
风寒 -2 °C
Kp-index 2 (0-9)

白天

日出
08:32 (15:37)
中午
12:25
日落
16:17

小工具

你想在你的网站上有一个关于Norden-Norddeich Airport的当前航空天气(METAR)的小部件吗?

显示HTML代码

我们和第三方通过cookies跟踪您在我们网站上的互联网行为。如果你继续,我们认为你同意我们的饼干政策